Kezdőlap
METAR-TAF:

METAR-TAF

Repülőterek :

Szunani nemzetközi repülőtér

Phenjan, Észak-Korea

földrajzi szélesség: 39-02N, földrajzi hosszúság: 125-47E, magasság: 36 m

METAR: hiányzik

Idő: 16:29 (07:29 UTC)

Előrejelzés

A jelentés 3 órával és 9 perccel ezelõtt készült, 04:20 UTC
Az előrejelzés 30-én 06 óra UTC és 01-én 06 óra UTC között érvényes
Kelet-északkeleti szél 6 kt
Látótávolság 10 km, vagy több
Borult 2000 lábon

TAF: ZKPY 300420Z 3006/0106 07003MPS 9999 OVC020 TX22/3006Z TN15/3022Z

Meteorológiai megfigyelések és előrejelzések több, mint 4000 repülőtéren (METAR és TAF jelentéseket).

A térképen piros és sárga pontok jelzik az elérhető meteorológiai állomásokat.

Mozgassa az egeret a pont fölött, hogy megjelenjen az állomás neve.

Azután kattintson az időjárási megfigyelések és előrejelzések megtekintéséhez.

A térkép megváltoztatása: kattintson a fekete keresztel jelölt zöld gombra ráközelítéshez, a vonallal jelölt zöld gombra távolításhoz, vagy a zöld nyilakra a szomszédos térképek eléréséhez.


METAR-TAF: